createdAt,value
2022-08-23T00:00:41.533Z,101098.53
2022-08-23T00:03:21.370Z,101094.19
2022-08-23T00:06:01.812Z,101087.97
2022-08-23T00:08:48.416Z,101086.09
2022-08-23T00:11:35.714Z,101094.81
2022-08-23T00:14:19.505Z,101096.28
2022-08-23T00:17:00.400Z,101104.38
2022-08-23T00:19:55.440Z,101103.75
2022-08-23T00:22:37.168Z,101098.13
2022-08-23T00:25:17.384Z,101090.47
2022-08-23T00:27:56.968Z,101091.50
2022-08-23T00:30:38.527Z,101100.22
2022-08-23T00:33:17.628Z,101103.34
2022-08-23T00:35:59.059Z,101101.47
2022-08-23T00:38:40.674Z,101100.66
2022-08-23T00:41:20.905Z,101095.63
2022-08-23T00:44:21.069Z,101093.19
2022-08-23T00:47:18.835Z,101098.16
2022-08-23T00:50:23.932Z,101103.75
2022-08-23T00:53:08.057Z,101101.47
2022-08-23T00:55:51.659Z,101091.31
2022-08-23T00:58:32.234Z,101093.16
2022-08-23T01:01:11.545Z,101089.03
2022-08-23T01:04:03.036Z,101088.59
2022-08-23T01:06:50.822Z,101100.63
2022-08-23T01:09:45.211Z,101098.16
2022-08-23T01:12:33.207Z,101089.44
2022-08-23T01:15:17.836Z,101093.78
2022-08-23T01:18:02.972Z,101094.00
2022-08-23T01:20:48.736Z,101092.75
2022-08-23T01:23:36.311Z,101094.38
2022-08-23T01:26:21.940Z,101091.88
2022-08-23T01:29:06.503Z,101089.41
2022-08-23T01:31:47.073Z,101094.38
2022-08-23T01:34:28.683Z,101094.38
2022-08-23T01:37:09.247Z,101086.50
2022-08-23T01:39:49.465Z,101090.88
2022-08-23T01:42:31.200Z,101097.69
2022-08-23T01:45:12.648Z,101096.03
2022-08-23T01:47:54.015Z,101094.38
2022-08-23T01:53:20.307Z,101087.72
2022-08-23T01:56:02.762Z,101090.63
2022-08-23T01:58:44.359Z,101091.47
2022-08-23T02:01:27.084Z,101094.38
2022-08-23T02:04:08.453Z,101092.09
2022-08-23T02:06:47.058Z,101091.06
2022-08-23T02:09:31.777Z,101099.78
2022-08-23T02:12:14.291Z,101097.69
2022-08-23T02:14:56.709Z,101099.75
2022-08-23T02:17:49.215Z,101105.75
2022-08-23T02:20:46.413Z,101102.22
2022-08-23T02:23:26.614Z,101102.44
2022-08-23T02:26:06.965Z,101101.81
2022-08-23T02:28:47.104Z,101105.13
2022-08-23T02:31:27.702Z,101098.25
2022-08-23T02:37:11.960Z,101098.88
2022-08-23T02:39:52.954Z,101112.16
2022-08-23T02:42:34.566Z,101109.63
2022-08-23T02:45:14.361Z,101118.78
2022-08-23T02:47:59.794Z,101119.41
2022-08-23T02:50:49.908Z,101108.22
2022-08-23T02:53:43.805Z,101117.91
2022-08-23T02:56:24.301Z,101113.31
2022-08-23T02:59:04.766Z,101116.25
2022-08-23T03:01:46.010Z,101118.38
2022-08-23T03:04:34.810Z,101117.91
2022-08-23T03:07:23.666Z,101113.97
2022-08-23T03:10:04.909Z,101115.00
2022-08-23T03:12:49.039Z,101110.19
2022-08-23T03:15:28.445Z,101110.44
2022-08-23T03:18:12.860Z,101111.88
2022-08-23T03:20:52.827Z,101115.41
2022-08-23T03:23:36.890Z,101115.16
2022-08-23T03:26:17.969Z,101115.75
2022-08-23T03:29:00.680Z,101121.13
2022-08-23T03:31:47.202Z,101121.75
2022-08-23T03:34:46.379Z,101121.25
2022-08-23T03:37:25.835Z,101121.72
2022-08-23T03:40:07.820Z,101132.50
2022-08-23T03:42:48.640Z,101128.97
2022-08-23T03:45:43.467Z,101128.81
2022-08-23T03:48:24.793Z,101126.94
2022-08-23T03:51:07.046Z,101124.69
2022-08-23T03:53:49.789Z,101129.03
2022-08-23T03:56:31.285Z,101133.38
2022-08-23T03:59:34.920Z,101132.13
2022-08-23T04:02:16.218Z,101130.28
2022-08-23T04:04:57.601Z,101130.34
2022-08-23T04:08:10.266Z,101133.00
2022-08-23T04:10:53.742Z,101135.88
2022-08-23T04:13:56.092Z,101144.75
2022-08-23T04:16:37.645Z,101147.47
2022-08-23T04:19:17.199Z,101148.72
2022-08-23T04:22:14.427Z,101146.81
2022-08-23T04:25:33.809Z,101150.78
2022-08-23T04:28:16.185Z,101146.13
2022-08-23T04:30:55.617Z,101152.09
2022-08-23T04:33:40.168Z,101154.22
2022-08-23T04:36:23.315Z,101148.41
2022-08-23T04:39:10.123Z,101149.50
2022-08-23T04:42:15.042Z,101153.84
2022-08-23T04:44:57.562Z,101165.09
2022-08-23T04:47:40.282Z,101167.34
2022-08-23T04:50:22.685Z,101167.06
2022-08-23T04:53:26.085Z,101170.84
2022-08-23T04:56:25.040Z,101171.72
2022-08-23T04:59:05.620Z,101172.66
2022-08-23T05:01:47.025Z,101168.72
2022-08-23T05:04:27.659Z,101172.09
2022-08-23T05:07:07.482Z,101174.59
2022-08-23T05:09:46.008Z,101175.78
2022-08-23T05:12:27.373Z,101183.50
2022-08-23T05:15:08.663Z,101183.34
2022-08-23T05:17:53.355Z,101180.81
2022-08-23T05:20:35.639Z,101179.97
2022-08-23T05:23:18.883Z,101184.38
2022-08-23T05:26:06.109Z,101193.75
2022-08-23T05:28:50.389Z,101195.19
2022-08-23T05:31:31.799Z,101197.50
2022-08-23T05:34:13.196Z,101199.97
2022-08-23T05:37:00.551Z,101206.03
2022-08-23T05:39:46.840Z,101204.19
2022-08-23T05:42:27.141Z,101208.75
2022-08-23T05:45:12.144Z,101213.09
2022-08-23T05:47:52.570Z,101210.41
2022-08-23T05:50:42.959Z,101210.84
2022-08-23T05:53:24.552Z,101210.41
2022-08-23T05:56:14.605Z,101210.00
2022-08-23T05:59:16.664Z,101209.19
2022-08-23T06:01:56.498Z,101213.75
2022-08-23T06:04:38.225Z,101219.56
2022-08-23T06:07:17.707Z,101227.84
2022-08-23T06:09:57.809Z,101223.50
2022-08-23T06:12:37.410Z,101222.13
2022-08-23T06:15:18.567Z,101217.16
2022-08-23T06:17:58.479Z,101223.00
2022-08-23T06:20:39.388Z,101233.34
2022-08-23T06:23:20.018Z,101223.44
2022-08-23T06:26:00.550Z,101232.78
2022-08-23T06:28:51.048Z,101224.50
2022-08-23T06:31:46.919Z,101230.34
2022-08-23T06:34:32.291Z,101225.59
2022-08-23T06:37:40.078Z,101233.03
2022-08-23T06:40:35.170Z,101230.59
2022-08-23T06:43:34.787Z,101231.84
2022-08-23T06:46:36.857Z,101233.50
2022-08-23T06:49:17.194Z,101240.00
2022-08-23T06:51:59.895Z,101232.53
2022-08-23T06:54:51.358Z,101225.47
2022-08-23T06:57:56.049Z,101226.09
2022-08-23T07:01:44.179Z,101230.28
2022-08-23T07:04:33.511Z,101232.78
2022-08-23T07:07:24.345Z,101233.59
2022-08-23T07:10:16.164Z,101222.22
2022-08-23T07:12:58.287Z,101229.06
2022-08-23T07:15:39.680Z,101242.16
2022-08-23T07:18:20.600Z,101233.22
2022-08-23T07:21:03.871Z,101247.31
2022-08-23T07:23:46.645Z,101251.41
2022-08-23T07:26:29.488Z,101252.66
2022-08-23T07:29:13.183Z,101264.31
2022-08-23T07:31:56.026Z,101264.88
2022-08-23T07:34:36.931Z,101276.66
2022-08-23T07:37:17.309Z,101275.88
2022-08-23T07:39:58.634Z,101279.59
2022-08-23T07:42:40.060Z,101285.22
2022-08-23T07:45:22.315Z,101287.41
2022-08-23T07:48:07.893Z,101292.19
2022-08-23T07:51:04.755Z,101294.09
2022-08-23T07:53:52.281Z,101292.97
2022-08-23T07:56:32.180Z,101280.53
2022-08-23T07:59:23.598Z,101279.00
2022-08-23T08:02:36.240Z,101281.72
2022-08-23T08:05:21.557Z,101281.88
2022-08-23T08:08:00.987Z,101279.50
2022-08-23T08:10:41.792Z,101283.38
2022-08-23T08:13:21.838Z,101291.47
2022-08-23T08:16:01.694Z,101283.34
2022-08-23T08:18:44.661Z,101288.47
2022-08-23T08:21:48.535Z,101275.47
2022-08-23T08:24:57.657Z,101286.03
2022-08-23T08:27:38.729Z,101273.91
2022-08-23T08:30:39.288Z,101289.31
2022-08-23T08:33:21.182Z,101280.16
2022-08-23T08:36:05.805Z,101284.69
2022-08-23T08:38:48.025Z,101287.19
2022-08-23T08:42:04.692Z,101279.84
2022-08-23T08:44:52.861Z,101279.19
2022-08-23T08:47:43.232Z,101280.06
2022-08-23T08:50:26.522Z,101275.56
2022-08-23T08:53:26.961Z,101282.66
2022-08-23T08:56:32.323Z,101285.72
2022-08-23T08:59:46.236Z,101288.47
2022-08-23T09:02:32.561Z,101278.56
2022-08-23T09:05:17.880Z,101288.69
2022-08-23T09:08:17.001Z,101288.50
2022-08-23T09:11:12.065Z,101291.00
2022-08-23T09:14:24.453Z,101294.50
2022-08-23T09:17:06.917Z,101290.38
2022-08-23T09:19:51.253Z,101290.50
2022-08-23T09:22:36.167Z,101289.53
2022-08-23T09:25:24.070Z,101285.66
2022-08-23T09:28:15.244Z,101293.72
2022-08-23T09:30:56.253Z,101290.81
2022-08-23T09:33:41.183Z,101290.75
2022-08-23T09:36:26.899Z,101290.72
2022-08-23T09:39:31.203Z,101279.78
2022-08-23T09:42:29.513Z,101278.19
2022-08-23T09:45:26.834Z,101270.06
2022-08-23T09:48:38.892Z,101277.03
2022-08-23T09:51:26.104Z,101276.69
2022-08-23T09:54:08.979Z,101271.31
2022-08-23T09:56:54.554Z,101273.69
2022-08-23T09:59:40.272Z,101263.34
2022-08-23T10:02:29.621Z,101262.44
2022-08-23T10:05:19.788Z,101259.22
2022-08-23T10:08:02.720Z,101257.63
2022-08-23T10:11:42.254Z,101258.13
2022-08-23T10:14:25.923Z,101246.09
2022-08-23T10:17:15.785Z,101248.25
2022-08-23T10:20:02.228Z,101249.38
2022-08-23T10:22:46.617Z,101249.41
2022-08-23T10:25:41.873Z,101247.91
2022-08-23T10:28:53.316Z,101248.06
2022-08-23T10:31:42.908Z,101244.94
2022-08-23T10:34:29.837Z,101241.00
2022-08-23T10:37:23.192Z,101246.41
2022-08-23T10:40:16.151Z,101238.50
2022-08-23T10:43:07.514Z,101234.66
2022-08-23T10:45:50.045Z,101234.13
2022-08-23T10:48:48.906Z,101234.66
2022-08-23T10:51:43.235Z,101241.81
2022-08-23T10:54:35.116Z,101235.75
2022-08-23T10:57:30.383Z,101238.44
2022-08-23T11:00:14.035Z,101239.28
2022-08-23T11:03:00.913Z,101231.22
2022-08-23T11:06:27.323Z,101227.47
2022-08-23T11:09:11.875Z,101226.44
2022-08-23T11:12:11.719Z,101221.47
2022-08-23T11:15:11.048Z,101227.88
2022-08-23T11:18:02.185Z,101223.34
2022-08-23T11:21:03.484Z,101230.84
2022-08-23T11:23:53.766Z,101223.16
2022-08-23T11:27:06.581Z,101223.66
2022-08-23T11:29:51.912Z,101224.97
2022-08-23T11:32:54.909Z,101222.34
2022-08-23T11:35:43.016Z,101216.09
2022-08-23T11:39:01.447Z,101225.97
2022-08-23T11:42:04.466Z,101225.00
2022-08-23T11:44:50.418Z,101222.97
2022-08-23T11:47:41.148Z,101217.53
2022-08-23T11:50:27.487Z,101221.56
2022-08-23T11:53:20.330Z,101208.56
2022-08-23T11:56:17.418Z,101208.16
2022-08-23T11:59:08.862Z,101206.13
2022-08-23T12:01:49.309Z,101206.31
2022-08-23T12:04:34.218Z,101205.41
2022-08-23T12:07:13.510Z,101204.72
2022-08-23T12:09:56.508Z,101211.38
2022-08-23T12:12:41.873Z,101205.63
2022-08-23T12:16:00.924Z,101198.56
2022-08-23T12:18:47.734Z,101209.28
2022-08-23T12:21:34.252Z,101200.16
2022-08-23T12:24:18.383Z,101197.44
2022-08-23T12:27:11.486Z,101195.06
2022-08-23T12:29:58.783Z,101200.22
2022-08-23T12:32:42.812Z,101193.53
2022-08-23T12:35:33.543Z,101182.97
2022-08-23T12:38:21.312Z,101188.34
2022-08-23T12:41:14.801Z,101194.44
2022-08-23T12:44:03.236Z,101182.53
2022-08-23T12:46:46.286Z,101187.88
2022-08-23T12:49:30.981Z,101189.56
2022-08-23T12:52:13.102Z,101192.53
2022-08-23T12:54:57.622Z,101190.22
2022-08-23T12:57:38.819Z,101192.44
2022-08-23T13:00:23.199Z,101200.09
2022-08-23T13:03:08.366Z,101196.16
2022-08-23T13:05:52.762Z,101195.44
2022-08-23T13:08:35.778Z,101192.31
2022-08-23T13:11:19.533Z,101180.31
2022-08-23T13:13:58.727Z,101179.91
2022-08-23T13:16:44.974Z,101172.25
2022-08-23T13:19:27.950Z,101178.81
2022-08-23T13:22:12.750Z,101171.38
2022-08-23T13:25:29.078Z,101163.78
2022-08-23T13:28:26.153Z,101169.50
2022-08-23T13:31:08.475Z,101161.69
2022-08-23T13:33:54.577Z,101168.00
2022-08-23T13:36:36.471Z,101171.59
2022-08-23T13:39:16.077Z,101165.19
2022-08-23T13:41:56.527Z,101177.91
2022-08-23T13:44:37.169Z,101176.34
2022-08-23T13:47:23.300Z,101174.53
2022-08-23T13:50:11.112Z,101171.28
2022-08-23T13:55:54.288Z,101154.22
2022-08-23T13:58:59.087Z,101176.78
2022-08-23T14:01:38.626Z,101171.13
2022-08-23T14:04:18.228Z,101157.75
2022-08-23T14:07:01.681Z,101168.22
2022-08-23T14:09:41.074Z,101161.94
2022-08-23T14:12:25.102Z,101173.19
2022-08-23T14:15:10.066Z,101162.19
2022-08-23T14:17:52.112Z,101165.53
2022-08-23T14:20:56.314Z,101169.31
2022-08-23T14:23:36.409Z,101160.28
2022-08-23T14:26:26.922Z,101163.75
2022-08-23T14:29:06.419Z,101157.69
2022-08-23T14:31:46.184Z,101156.09
2022-08-23T14:34:26.227Z,101152.19
2022-08-23T14:38:02.806Z,101161.97
2022-08-23T14:40:10.851Z,101150.53
2022-08-23T14:42:50.666Z,101150.50
2022-08-23T14:45:30.312Z,101151.34
2022-08-23T14:48:12.118Z,101147.75
2022-08-23T14:50:52.412Z,101148.25
2022-08-23T14:53:35.558Z,101148.50
2022-08-23T14:56:38.758Z,101143.53
2022-08-23T14:59:20.373Z,101141.25
2022-08-23T15:01:59.925Z,101145.34
2022-08-23T15:04:42.069Z,101147.28
2022-08-23T15:07:22.624Z,101142.56
2022-08-23T15:10:05.148Z,101147.97
2022-08-23T15:13:13.993Z,101140.56
2022-08-23T15:15:49.105Z,101143.56
2022-08-23T15:18:28.880Z,101137.19
2022-08-23T15:21:10.668Z,101149.81
2022-08-23T15:23:50.576Z,101139.91
2022-08-23T15:26:31.765Z,101138.03
2022-08-23T15:29:11.261Z,101137.72
2022-08-23T15:32:03.800Z,101140.81
2022-08-23T15:34:46.634Z,101142.47
2022-08-23T15:37:27.306Z,101149.84
2022-08-23T15:40:09.059Z,101137.75
2022-08-23T15:42:48.737Z,101149.78
2022-08-23T15:45:49.741Z,101140.44
2022-08-23T15:48:31.394Z,101146.63
2022-08-23T15:51:12.090Z,101143.63
2022-08-23T15:53:52.151Z,101136.78
2022-08-23T15:56:33.430Z,101138.13
2022-08-23T15:59:17.288Z,101140.56
2022-08-23T16:01:57.554Z,101151.22
2022-08-23T16:04:48.237Z,101145.19
2022-08-23T16:07:28.560Z,101145.13
2022-08-23T16:10:12.025Z,101141.00
2022-08-23T16:12:51.378Z,101143.69
2022-08-23T16:15:31.203Z,101145.59
2022-08-23T16:18:13.283Z,101147.13
2022-08-23T16:20:54.225Z,101141.03
2022-08-23T16:23:33.839Z,101137.78
2022-08-23T16:26:17.168Z,101143.69
2022-08-23T16:29:01.852Z,101143.69
2022-08-23T16:31:43.231Z,101134.41
2022-08-23T16:35:18.779Z,101139.22
2022-08-23T16:38:02.487Z,101141.38
2022-08-23T16:40:41.375Z,101134.78
2022-08-23T16:43:22.792Z,101129.28
2022-08-23T16:46:02.267Z,101133.00
2022-08-23T16:48:44.248Z,101133.22
2022-08-23T16:51:23.632Z,101131.53
2022-08-23T16:54:03.538Z,101135.47
2022-08-23T16:56:45.040Z,101138.13
2022-08-23T16:59:29.684Z,101132.69
2022-08-23T17:02:11.459Z,101137.56
2022-08-23T17:04:52.842Z,101132.63
2022-08-23T17:07:33.475Z,101133.94
2022-08-23T17:10:14.348Z,101137.38
2022-08-23T17:12:58.247Z,101141.94
2022-08-23T17:15:38.235Z,101143.25
2022-08-23T17:18:17.791Z,101152.13
2022-08-23T17:20:57.773Z,101148.75
2022-08-23T17:23:40.648Z,101149.41
2022-08-23T17:26:20.598Z,101156.09
2022-08-23T17:29:00.469Z,101156.31
2022-08-23T17:31:40.169Z,101160.31
2022-08-23T17:34:19.611Z,101162.13
2022-08-23T17:37:21.952Z,101171.03
2022-08-23T17:40:01.663Z,101171.22
2022-08-23T17:42:41.863Z,101173.38
2022-08-23T17:45:22.040Z,101168.56
2022-08-23T17:48:02.901Z,101182.09
2022-08-23T17:50:43.451Z,101170.53
2022-08-23T17:53:23.863Z,101188.03
2022-08-23T17:56:05.961Z,101177.63
2022-08-23T17:58:49.977Z,101182.00
2022-08-23T18:01:30.242Z,101179.28
2022-08-23T18:04:09.513Z,101186.88
2022-08-23T18:06:49.328Z,101185.16
2022-08-23T18:09:29.148Z,101192.28
2022-08-23T18:12:08.344Z,101189.22
2022-08-23T18:14:51.133Z,101198.25
2022-08-23T18:17:34.749Z,101203.13
2022-08-23T18:20:14.851Z,101201.13
2022-08-23T18:22:57.962Z,101197.97
2022-08-23T18:25:39.561Z,101206.22
2022-08-23T18:28:21.148Z,101199.13
2022-08-23T18:31:03.480Z,101209.59
2022-08-23T18:33:46.735Z,101214.44
2022-08-23T18:36:28.809Z,101210.63
2022-08-23T18:39:09.845Z,101213.94
2022-08-23T18:41:49.246Z,101214.66
2022-08-23T18:44:34.235Z,101222.59
2022-08-23T18:47:13.649Z,101227.44
2022-08-23T18:49:53.470Z,101227.19
2022-08-23T18:52:33.276Z,101227.09
2022-08-23T18:55:12.122Z,101233.22
2022-08-23T18:57:49.993Z,101234.00
2022-08-23T19:00:32.555Z,101237.19
2022-08-23T19:03:14.856Z,101242.84
2022-08-23T19:05:58.288Z,101242.38
2022-08-23T19:08:38.473Z,101247.69
2022-08-23T19:11:19.929Z,101252.38
2022-08-23T19:14:00.492Z,101259.03
2022-08-23T19:16:45.651Z,101262.38
2022-08-23T19:19:29.320Z,101267.66
2022-08-23T19:22:10.763Z,101267.53
2022-08-23T19:24:50.167Z,101269.59
2022-08-23T19:27:29.933Z,101273.59
2022-08-23T19:30:12.116Z,101278.88
2022-08-23T19:33:05.509Z,101282.50
2022-08-23T19:36:02.514Z,101289.97
2022-08-23T19:38:42.303Z,101286.66
2022-08-23T19:41:20.913Z,101279.63
2022-08-23T19:44:00.532Z,101296.81
2022-08-23T19:46:42.227Z,101284.22
2022-08-23T19:49:22.884Z,101288.44
2022-08-23T19:52:02.123Z,101299.13
2022-08-23T19:54:42.862Z,101297.06
2022-08-23T19:57:21.516Z,101302.63
2022-08-23T20:00:00.388Z,101304.28
2022-08-23T20:03:21.902Z,101314.09
2022-08-23T20:06:02.617Z,101311.47
2022-08-23T20:08:44.440Z,101314.00
2022-08-23T20:11:27.770Z,101315.50
2022-08-23T20:14:25.827Z,101321.81
2022-08-23T20:17:08.733Z,101330.31
2022-08-23T20:19:49.664Z,101322.63
2022-08-23T20:22:48.839Z,101327.22
2022-08-23T20:25:30.684Z,101327.88
2022-08-23T20:28:11.109Z,101326.63
2022-08-23T20:30:53.033Z,101335.81
2022-08-23T20:33:32.575Z,101335.81
2022-08-23T20:36:12.559Z,101327.06
2022-08-23T20:38:54.114Z,101329.78
2022-08-23T20:41:36.244Z,101337.69
2022-08-23T20:44:16.535Z,101339.56
2022-08-23T20:46:59.799Z,101329.31
2022-08-23T20:49:42.513Z,101337.06
2022-08-23T20:52:24.311Z,101337.91
2022-08-23T20:55:09.574Z,101338.28
2022-08-23T20:57:50.309Z,101329.94
2022-08-23T21:00:29.767Z,101332.66
2022-08-23T21:03:09.597Z,101333.47
2022-08-23T21:05:49.626Z,101333.47
2022-08-23T21:08:53.699Z,101337.47
2022-08-23T21:11:34.614Z,101344.16
2022-08-23T21:14:17.266Z,101345.44
2022-08-23T21:17:13.546Z,101352.97
2022-08-23T21:19:54.042Z,101347.75
2022-08-23T21:22:34.393Z,101350.06
2022-08-23T21:25:17.050Z,101346.72
2022-08-23T21:27:58.871Z,101351.94
2022-08-23T21:30:41.139Z,101348.38
2022-08-23T21:33:21.806Z,101346.78
2022-08-23T21:36:05.128Z,101349.94
2022-08-23T21:38:45.808Z,101356.03
2022-08-23T21:41:31.930Z,101351.00
2022-08-23T21:44:12.992Z,101349.81
2022-08-23T21:46:54.662Z,101349.03
2022-08-23T21:49:36.058Z,101351.09
2022-08-23T21:52:15.507Z,101355.09
2022-08-23T21:54:55.345Z,101347.81
2022-08-23T21:57:35.151Z,101346.16
2022-08-23T22:00:17.538Z,101346.63
2022-08-23T22:03:00.117Z,101344.09
2022-08-23T22:05:44.840Z,101346.22
2022-08-23T22:08:25.534Z,101344.34
2022-08-23T22:11:07.351Z,101343.75
2022-08-23T22:13:48.743Z,101346.03
2022-08-23T22:16:28.293Z,101356.25
2022-08-23T22:19:08.136Z,101342.72
2022-08-23T22:21:51.264Z,101345.03
2022-08-23T22:24:31.481Z,101341.28
2022-08-23T22:27:13.672Z,101346.09
2022-08-23T22:29:55.962Z,101348.41
2022-08-23T22:32:37.536Z,101340.91
2022-08-23T22:35:18.393Z,101344.66
2022-08-23T22:38:13.213Z,101344.66
2022-08-23T22:40:53.686Z,101348.44
2022-08-23T22:43:34.433Z,101346.53
2022-08-23T22:46:17.006Z,101343.84
2022-08-23T22:48:58.352Z,101342.81
2022-08-23T22:51:37.861Z,101340.94
2022-08-23T22:54:19.675Z,101347.38
2022-08-23T22:57:00.889Z,101331.34
2022-08-23T22:59:39.083Z,101335.53
2022-08-23T23:02:20.247Z,101344.25
2022-08-23T23:04:59.907Z,101330.75
2022-08-23T23:07:57.427Z,101336.56
2022-08-23T23:10:37.828Z,101338.44
2022-08-23T23:13:19.283Z,101348.63
2022-08-23T23:16:00.636Z,101347.19
2022-08-23T23:18:43.052Z,101344.47
2022-08-23T23:21:22.786Z,101353.84
2022-08-23T23:24:02.792Z,101356.09
2022-08-23T23:26:44.593Z,101353.59
2022-08-23T23:29:26.791Z,101353.41
2022-08-23T23:32:07.202Z,101356.31
2022-08-23T23:34:47.888Z,101344.00
2022-08-23T23:37:28.027Z,101344.41
2022-08-23T23:40:09.345Z,101356.25
2022-08-23T23:42:48.165Z,101351.69
2022-08-23T23:45:29.693Z,101348.78
2022-08-23T23:48:09.255Z,101348.31
2022-08-23T23:50:48.620Z,101349.56
2022-08-23T23:53:27.221Z,101344.56
2022-08-23T23:56:13.577Z,101348.72
2022-08-23T23:58:54.344Z,101347.84
